createdAt,value
2023-02-16T00:02:12.455Z,3.80
2023-02-16T00:04:39.782Z,3.90
2023-02-16T00:07:07.310Z,3.90
2023-02-16T00:09:35.760Z,4.00
2023-02-16T00:12:21.858Z,3.90
2023-02-16T00:14:48.961Z,3.90
2023-02-16T00:17:16.047Z,3.90
2023-02-16T00:19:43.296Z,3.80
2023-02-16T00:22:11.743Z,3.80
2023-02-16T00:24:40.367Z,3.80
2023-02-16T00:27:14.446Z,3.80
2023-02-16T00:29:44.060Z,3.80
2023-02-16T00:32:13.698Z,3.70
2023-02-16T00:34:42.335Z,3.80
2023-02-16T00:37:14.955Z,3.90
2023-02-16T00:39:45.758Z,3.90
2023-02-16T00:42:20.868Z,4.00
2023-02-16T00:44:51.276Z,4.00
2023-02-16T00:47:23.385Z,4.00
2023-02-16T00:49:53.864Z,4.00
2023-02-16T00:52:33.233Z,4.00
2023-02-16T00:55:09.223Z,4.00
2023-02-16T00:57:41.323Z,4.00
2023-02-16T01:00:18.192Z,3.90
2023-02-16T01:02:48.850Z,3.80
2023-02-16T01:05:19.122Z,3.90
2023-02-16T01:08:04.776Z,3.90
2023-02-16T01:10:53.203Z,4.00
2023-02-16T01:13:20.996Z,3.90
2023-02-16T01:15:48.570Z,4.00
2023-02-16T01:18:18.467Z,4.00
2023-02-16T01:20:47.098Z,3.90
2023-02-16T01:23:14.595Z,3.90
2023-02-16T01:25:43.557Z,3.90
2023-02-16T01:28:20.021Z,3.90
2023-02-16T01:30:47.370Z,4.00
2023-02-16T01:33:14.494Z,4.00
2023-02-16T01:35:42.372Z,3.80
2023-02-16T01:38:18.479Z,3.70
2023-02-16T01:40:56.007Z,3.70
2023-02-16T01:43:28.682Z,3.70
2023-02-16T01:46:02.874Z,3.70
2023-02-16T01:48:31.832Z,3.70
2023-02-16T01:51:08.173Z,3.70
2023-02-16T01:53:41.198Z,3.70
2023-02-16T01:56:21.630Z,3.70
2023-02-16T01:58:54.731Z,3.60
2023-02-16T02:01:42.801Z,3.70
2023-02-16T02:04:38.296Z,3.70
2023-02-16T02:07:05.882Z,3.80
2023-02-16T02:09:41.053Z,3.80
2023-02-16T02:12:23.687Z,3.70
2023-02-16T02:14:52.021Z,3.60
2023-02-16T02:17:21.396Z,3.60
2023-02-16T02:19:59.742Z,3.60
2023-02-16T02:23:33.156Z,3.60
2023-02-16T02:27:18.459Z,3.60
2023-02-16T02:30:14.259Z,3.60
2023-02-16T02:33:12.510Z,3.60
2023-02-16T02:35:49.035Z,3.60
2023-02-16T02:38:25.186Z,3.70
2023-02-16T02:41:00.585Z,3.60
2023-02-16T02:43:36.409Z,3.50
2023-02-16T02:46:11.640Z,3.60
2023-02-16T02:48:39.749Z,3.60
2023-02-16T02:51:31.067Z,3.40
2023-02-16T02:54:22.161Z,3.60
2023-02-16T02:57:15.046Z,3.50
2023-02-16T03:00:07.152Z,3.50
2023-02-16T03:02:38.634Z,3.50
2023-02-16T03:05:10.240Z,3.50
2023-02-16T03:07:48.313Z,3.50
2023-02-16T03:10:37.642Z,3.40
2023-02-16T03:13:09.093Z,3.60
2023-02-16T03:15:38.643Z,3.60
2023-02-16T03:18:28.789Z,3.60
2023-02-16T03:21:15.918Z,3.60
2023-02-16T03:24:03.457Z,3.60
2023-02-16T03:26:51.531Z,3.40
2023-02-16T03:29:23.119Z,3.30
2023-02-16T03:31:52.192Z,3.30
2023-02-16T03:34:23.284Z,3.30
2023-02-16T03:36:58.346Z,3.20
2023-02-16T03:39:26.731Z,3.20
2023-02-16T03:41:56.283Z,3.30
2023-02-16T03:44:27.821Z,3.30
2023-02-16T03:46:55.409Z,3.20
2023-02-16T03:49:23.876Z,3.30
2023-02-16T03:51:51.547Z,3.30
2023-02-16T03:54:19.399Z,3.40
2023-02-16T03:56:46.866Z,3.30
2023-02-16T03:59:14.322Z,3.40
2023-02-16T04:01:42.075Z,3.30
2023-02-16T04:04:09.375Z,3.40
2023-02-16T04:06:38.466Z,3.40
2023-02-16T04:09:05.841Z,3.20
2023-02-16T04:11:52.140Z,3.30
2023-02-16T04:14:19.380Z,3.20
2023-02-16T04:16:47.024Z,3.30
2023-02-16T04:19:14.528Z,3.30
2023-02-16T04:21:43.562Z,3.30
2023-02-16T04:24:11.532Z,3.40
2023-02-16T04:26:39.347Z,3.30
2023-02-16T04:29:06.858Z,3.20
2023-02-16T04:31:33.997Z,3.30
2023-02-16T04:34:01.639Z,3.30
2023-02-16T04:36:28.978Z,3.30
2023-02-16T04:38:58.075Z,3.40
2023-02-16T04:41:26.913Z,3.40
2023-02-16T04:43:54.073Z,3.50
2023-02-16T04:49:05.827Z,3.40
2023-02-16T04:51:32.980Z,3.40
2023-02-16T04:54:01.528Z,3.50
2023-02-16T04:56:28.533Z,3.50
2023-02-16T04:58:57.027Z,3.40
2023-02-16T05:01:27.393Z,3.40
2023-02-16T05:03:55.256Z,3.40
2023-02-16T05:06:23.127Z,3.50
2023-02-16T05:08:50.289Z,3.50
2023-02-16T05:11:37.782Z,3.50
2023-02-16T05:14:23.755Z,3.50
2023-02-16T05:16:51.702Z,3.50
2023-02-16T05:19:18.871Z,3.50
2023-02-16T05:21:46.413Z,3.60
2023-02-16T05:24:13.512Z,3.60
2023-02-16T05:26:42.437Z,3.60
2023-02-16T05:29:09.677Z,3.60
2023-02-16T05:31:37.341Z,3.60
2023-02-16T05:34:14.083Z,3.60
2023-02-16T05:36:42.109Z,3.60
2023-02-16T05:39:09.455Z,3.60
2023-02-16T05:41:37.079Z,3.40
2023-02-16T05:44:08.289Z,3.40
2023-02-16T05:46:38.239Z,3.30
2023-02-16T05:49:09.830Z,3.40
2023-02-16T05:51:37.734Z,3.40
2023-02-16T05:54:06.072Z,3.40
2023-02-16T05:56:34.779Z,3.40
2023-02-16T05:59:09.923Z,3.40
2023-02-16T06:01:40.733Z,3.30
2023-02-16T06:04:09.673Z,3.30
2023-02-16T06:06:37.618Z,3.30
2023-02-16T06:09:05.766Z,3.40
2023-02-16T06:11:36.213Z,3.40
2023-02-16T06:14:05.212Z,3.50
2023-02-16T06:19:20.980Z,3.50
2023-02-16T06:21:49.155Z,3.50
2023-02-16T06:24:16.559Z,3.50
2023-02-16T06:26:44.240Z,3.40
2023-02-16T06:29:11.569Z,3.50
2023-02-16T06:31:41.743Z,3.40
2023-02-16T06:34:09.192Z,3.30
2023-02-16T06:36:36.761Z,3.30
2023-02-16T06:39:04.311Z,3.40
2023-02-16T06:41:32.122Z,3.40
2023-02-16T06:44:00.548Z,3.40
2023-02-16T06:46:28.207Z,3.40
2023-02-16T06:48:56.906Z,3.40
2023-02-16T06:51:24.479Z,3.30
2023-02-16T06:53:51.871Z,3.30
2023-02-16T06:56:21.912Z,3.40
2023-02-16T06:58:49.748Z,3.40
2023-02-16T07:01:23.069Z,3.40
2023-02-16T07:03:51.246Z,3.40
2023-02-16T07:06:21.552Z,3.40
2023-02-16T07:08:48.795Z,3.50
2023-02-16T07:11:19.726Z,3.50
2023-02-16T07:13:48.023Z,3.40
2023-02-16T07:16:15.689Z,3.40
2023-02-16T07:18:43.826Z,3.30
2023-02-16T07:21:11.506Z,3.30
2023-02-16T07:23:41.003Z,3.30
2023-02-16T07:26:08.602Z,3.40
2023-02-16T07:28:35.978Z,3.40
2023-02-16T07:31:10.937Z,3.50
2023-02-16T07:33:40.994Z,3.40
2023-02-16T07:36:10.216Z,3.50
2023-02-16T07:38:39.652Z,3.50
2023-02-16T07:41:09.540Z,3.60
2023-02-16T07:43:38.043Z,3.60
2023-02-16T07:46:05.931Z,3.50
2023-02-16T07:48:33.286Z,3.50
2023-02-16T07:51:01.155Z,3.50
2023-02-16T07:53:28.432Z,3.60
2023-02-16T07:55:57.164Z,3.50
2023-02-16T07:58:30.590Z,3.40
2023-02-16T08:01:07.248Z,3.40
2023-02-16T08:03:37.806Z,3.40
2023-02-16T08:06:06.296Z,3.50
2023-02-16T08:08:34.386Z,3.50
2023-02-16T08:11:09.672Z,3.50
2023-02-16T08:13:37.230Z,3.40
2023-02-16T08:16:09.107Z,3.30
2023-02-16T08:18:36.753Z,3.40
2023-02-16T08:21:14.681Z,3.50
2023-02-16T08:23:43.624Z,3.40
2023-02-16T08:26:12.899Z,3.50
2023-02-16T08:28:46.130Z,3.30
2023-02-16T08:31:14.565Z,3.40
2023-02-16T08:33:42.386Z,3.50
2023-02-16T08:36:17.947Z,3.60
2023-02-16T08:38:45.247Z,3.70
2023-02-16T08:41:13.800Z,3.70
2023-02-16T08:43:41.197Z,3.80
2023-02-16T08:46:09.189Z,3.70
2023-02-16T08:48:37.028Z,3.70
2023-02-16T08:51:06.933Z,3.80
2023-02-16T08:53:35.191Z,3.70
2023-02-16T08:56:04.918Z,3.50
2023-02-16T08:58:33.976Z,3.50
2023-02-16T09:01:05.939Z,3.60
2023-02-16T09:03:33.106Z,3.70
2023-02-16T09:06:04.555Z,3.80
2023-02-16T09:08:32.849Z,3.80
2023-02-16T09:11:02.798Z,3.60
2023-02-16T09:13:30.522Z,3.70
2023-02-16T09:16:04.411Z,3.80
2023-02-16T09:18:33.073Z,3.60
2023-02-16T09:21:05.094Z,3.70
2023-02-16T09:23:33.010Z,3.70
2023-02-16T09:26:02.762Z,3.80
2023-02-16T09:28:30.778Z,3.80
2023-02-16T09:30:58.887Z,3.80
2023-02-16T09:33:33.960Z,3.80
2023-02-16T09:36:05.445Z,3.80
2023-02-16T09:38:33.974Z,3.90
2023-02-16T09:41:07.917Z,4.00
2023-02-16T09:43:46.354Z,4.10
2023-02-16T09:46:17.912Z,4.00
2023-02-16T09:48:49.889Z,4.00
2023-02-16T09:51:29.386Z,4.10
2023-02-16T09:57:03.292Z,3.90
2023-02-16T09:59:45.685Z,4.10
2023-02-16T10:02:32.777Z,4.00
2023-02-16T10:05:22.337Z,4.00
2023-02-16T10:08:00.065Z,4.00
2023-02-16T10:10:35.694Z,4.00
2023-02-16T10:13:11.496Z,4.00
2023-02-16T10:15:40.716Z,4.00
2023-02-16T10:18:18.700Z,4.10
2023-02-16T10:20:52.567Z,4.00
2023-02-16T10:23:41.355Z,4.20
2023-02-16T10:26:18.621Z,4.20
2023-02-16T10:28:48.768Z,4.10
2023-02-16T10:31:24.503Z,4.00
2023-02-16T10:34:10.108Z,4.10
2023-02-16T10:37:05.004Z,4.20
2023-02-16T10:39:41.841Z,4.30
2023-02-16T10:42:20.950Z,4.30
2023-02-16T10:44:53.143Z,4.30
2023-02-16T10:47:33.490Z,4.30
2023-02-16T10:50:00.965Z,4.40
2023-02-16T10:52:36.381Z,4.30
2023-02-16T10:55:05.099Z,4.30
2023-02-16T10:57:33.657Z,4.40
2023-02-16T11:00:06.942Z,4.40
2023-02-16T11:02:42.248Z,4.40
2023-02-16T11:05:36.102Z,4.30
2023-02-16T11:08:08.265Z,4.40
2023-02-16T11:10:40.516Z,4.40
2023-02-16T11:13:20.704Z,4.30
2023-02-16T11:15:54.824Z,4.30
2023-02-16T11:18:36.562Z,4.30
2023-02-16T11:21:06.607Z,4.20
2023-02-16T11:23:37.323Z,4.30
2023-02-16T11:26:25.936Z,4.30
2023-02-16T11:28:53.548Z,4.30
2023-02-16T11:31:29.448Z,4.40
2023-02-16T11:34:04.880Z,4.50
2023-02-16T11:36:37.978Z,4.60
2023-02-16T11:39:16.385Z,4.70
2023-02-16T11:41:46.378Z,4.70
2023-02-16T11:44:27.153Z,4.80
2023-02-16T11:46:57.738Z,4.90
2023-02-16T11:49:34.179Z,4.90
2023-02-16T11:52:19.380Z,5.00
2023-02-16T11:54:52.324Z,5.10
2023-02-16T11:57:25.543Z,5.20
2023-02-16T11:59:52.904Z,5.20
2023-02-16T12:02:50.778Z,5.30
2023-02-16T12:05:29.000Z,5.40
2023-02-16T12:08:15.104Z,5.30
2023-02-16T12:11:02.124Z,5.40
2023-02-16T12:13:40.738Z,5.50
2023-02-16T12:16:23.706Z,5.60
2023-02-16T12:19:09.031Z,5.70
2023-02-16T12:21:42.758Z,5.80
2023-02-16T12:24:27.873Z,5.70
2023-02-16T12:26:59.550Z,5.80
2023-02-16T12:29:41.776Z,5.80
2023-02-16T12:32:39.760Z,5.70
2023-02-16T12:35:29.782Z,5.70
2023-02-16T12:38:09.939Z,5.80
2023-02-16T12:40:51.472Z,5.90
2023-02-16T12:43:33.597Z,5.90
2023-02-16T12:46:09.160Z,5.90
2023-02-16T12:48:48.458Z,5.90
2023-02-16T12:51:21.688Z,5.90
2023-02-16T12:53:58.489Z,5.80
2023-02-16T12:56:31.631Z,5.90
2023-02-16T12:59:20.696Z,6.00
2023-02-16T13:01:52.220Z,6.10
2023-02-16T13:04:26.019Z,6.10
2023-02-16T13:07:06.254Z,6.10
2023-02-16T13:09:40.727Z,6.00
2023-02-16T13:12:16.339Z,6.10
2023-02-16T13:14:54.106Z,6.10
2023-02-16T13:20:19.812Z,6.20
2023-02-16T13:23:40.352Z,6.20
2023-02-16T13:26:28.904Z,6.30
2023-02-16T13:29:55.636Z,6.20
2023-02-16T13:32:44.827Z,6.30
2023-02-16T13:35:38.200Z,6.30
2023-02-16T13:38:26.333Z,6.30
2023-02-16T13:41:33.836Z,6.30
2023-02-16T13:44:04.276Z,6.40
2023-02-16T13:46:38.339Z,6.40
2023-02-16T13:49:06.627Z,6.40
2023-02-16T13:51:44.081Z,6.50
2023-02-16T13:54:28.417Z,6.40
2023-02-16T13:56:56.426Z,6.50
2023-02-16T14:00:02.436Z,6.40
2023-02-16T14:02:57.140Z,6.40
2023-02-16T14:05:35.684Z,6.40
2023-02-16T14:08:21.088Z,6.30
2023-02-16T14:11:10.426Z,6.40
2023-02-16T14:13:50.104Z,6.50
2023-02-16T14:16:34.188Z,6.60
2023-02-16T14:19:17.953Z,6.60
2023-02-16T14:21:47.534Z,6.70
2023-02-16T14:24:31.493Z,6.70
2023-02-16T14:27:02.769Z,6.70
2023-02-16T14:29:37.165Z,6.70
2023-02-16T14:32:22.893Z,6.70
2023-02-16T14:34:56.321Z,6.70
2023-02-16T14:37:34.860Z,6.50
2023-02-16T14:40:22.582Z,6.50
2023-02-16T14:43:04.035Z,6.60
2023-02-16T14:45:58.992Z,6.60
2023-02-16T14:49:31.962Z,6.40
2023-02-16T14:52:51.522Z,6.40
2023-02-16T14:56:04.181Z,6.40
2023-02-16T14:58:38.212Z,6.30
2023-02-16T15:01:12.667Z,6.30
2023-02-16T15:03:48.427Z,6.30
2023-02-16T15:06:24.529Z,6.40
2023-02-16T15:08:58.218Z,6.50
2023-02-16T15:11:35.280Z,6.50
2023-02-16T15:14:09.028Z,6.50
2023-02-16T15:16:41.198Z,6.50
2023-02-16T15:19:16.592Z,6.60
2023-02-16T15:21:45.056Z,6.60
2023-02-16T15:24:24.397Z,6.60
2023-02-16T15:26:56.982Z,6.60
2023-02-16T15:29:27.475Z,6.60
2023-02-16T15:31:55.758Z,6.60
2023-02-16T15:34:33.666Z,6.60
2023-02-16T15:37:03.668Z,6.60
2023-02-16T15:39:48.270Z,6.60
2023-02-16T15:42:23.981Z,6.60
2023-02-16T15:44:52.364Z,6.50
2023-02-16T15:47:24.920Z,6.50
2023-02-16T15:49:52.990Z,6.40
2023-02-16T15:52:28.597Z,6.50
2023-02-16T15:54:57.798Z,6.50
2023-02-16T15:57:31.391Z,6.50
2023-02-16T16:00:00.987Z,6.50
2023-02-16T16:02:37.105Z,6.50
2023-02-16T16:05:09.608Z,6.60
2023-02-16T16:07:41.278Z,6.70
2023-02-16T16:10:17.926Z,6.70
2023-02-16T16:12:46.644Z,6.70
2023-02-16T16:15:20.729Z,6.80
2023-02-16T16:17:48.436Z,6.80
2023-02-16T16:20:28.626Z,6.70
2023-02-16T16:22:58.675Z,6.60
2023-02-16T16:25:43.467Z,6.70
2023-02-16T16:28:15.030Z,6.70
2023-02-16T16:30:45.626Z,6.70
2023-02-16T16:33:15.139Z,6.70
2023-02-16T16:35:45.094Z,6.70
2023-02-16T16:38:24.357Z,6.70
2023-02-16T16:40:56.133Z,6.60
2023-02-16T16:43:27.347Z,6.50
2023-02-16T16:45:58.362Z,6.60
2023-02-16T16:48:31.277Z,6.60
2023-02-16T16:51:11.927Z,6.70
2023-02-16T16:53:43.752Z,6.70
2023-02-16T16:56:19.087Z,6.70
2023-02-16T16:58:50.725Z,6.60
2023-02-16T17:01:19.933Z,6.60
2023-02-16T17:03:47.701Z,6.40
2023-02-16T17:06:15.669Z,6.40
2023-02-16T17:08:43.062Z,6.40
2023-02-16T17:11:23.061Z,6.50
2023-02-16T17:13:52.129Z,6.40
2023-02-16T17:16:24.843Z,6.50
2023-02-16T17:18:55.345Z,6.40
2023-02-16T17:21:22.780Z,6.40
2023-02-16T17:23:53.022Z,6.40
2023-02-16T17:26:37.614Z,6.40
2023-02-16T17:29:06.837Z,6.50
2023-02-16T17:31:37.083Z,6.40
2023-02-16T17:34:05.101Z,6.40
2023-02-16T17:36:34.625Z,6.20
2023-02-16T17:39:02.431Z,6.10
2023-02-16T17:41:30.595Z,6.10
2023-02-16T17:43:59.529Z,6.10
2023-02-16T17:46:28.676Z,6.10
2023-02-16T17:48:56.156Z,6.10
2023-02-16T17:51:26.384Z,6.00
2023-02-16T17:53:54.228Z,6.10
2023-02-16T17:56:23.703Z,6.00
2023-02-16T17:58:51.669Z,6.00
2023-02-16T18:01:21.474Z,6.00
2023-02-16T18:03:48.950Z,5.90
2023-02-16T18:06:19.880Z,6.00
2023-02-16T18:08:47.946Z,6.00
2023-02-16T18:11:17.291Z,5.90
2023-02-16T18:13:45.182Z,6.00
2023-02-16T18:16:17.891Z,6.00
2023-02-16T18:18:47.013Z,5.90
2023-02-16T18:21:14.442Z,5.90
2023-02-16T18:23:42.536Z,5.80
2023-02-16T18:26:14.945Z,5.90
2023-02-16T18:28:45.153Z,5.80
2023-02-16T18:31:14.434Z,5.70
2023-02-16T18:33:44.635Z,5.80
2023-02-16T18:36:24.782Z,5.80
2023-02-16T18:38:52.665Z,5.70
2023-02-16T18:41:20.271Z,5.70
2023-02-16T18:43:47.939Z,5.70
2023-02-16T18:46:15.343Z,5.60
2023-02-16T18:48:43.060Z,5.60
2023-02-16T18:51:11.782Z,5.50
2023-02-16T18:53:40.668Z,5.40
2023-02-16T18:56:11.041Z,5.40
2023-02-16T19:01:30.676Z,5.50
2023-02-16T19:04:00.831Z,5.50
2023-02-16T19:06:28.380Z,5.60
2023-02-16T19:09:02.913Z,5.60
2023-02-16T19:11:31.373Z,5.60
2023-02-16T19:13:58.957Z,5.60
2023-02-16T19:16:26.401Z,5.70
2023-02-16T19:18:53.970Z,5.80
2023-02-16T19:21:21.182Z,5.80
2023-02-16T19:23:48.904Z,5.70
2023-02-16T19:26:18.807Z,5.60
2023-02-16T19:28:47.282Z,5.50
2023-02-16T19:31:21.599Z,5.50
2023-02-16T19:34:01.786Z,5.40
2023-02-16T19:36:31.521Z,5.40
2023-02-16T19:38:59.345Z,5.30
2023-02-16T19:41:31.480Z,5.30
2023-02-16T19:43:58.753Z,5.30
2023-02-16T19:46:26.922Z,5.40
2023-02-16T19:48:57.617Z,5.40
2023-02-16T19:51:28.249Z,5.50
2023-02-16T19:53:56.230Z,5.50
2023-02-16T19:56:27.451Z,5.40
2023-02-16T19:58:58.083Z,5.50
2023-02-16T20:01:28.272Z,5.50
2023-02-16T20:03:57.273Z,5.40
2023-02-16T20:06:27.137Z,5.50
2023-02-16T20:08:56.391Z,5.50
2023-02-16T20:11:28.553Z,5.50
2023-02-16T20:13:56.811Z,5.50
2023-02-16T20:16:25.262Z,5.50
2023-02-16T20:18:52.702Z,5.40
2023-02-16T20:21:22.280Z,5.30
2023-02-16T20:23:52.399Z,5.30
2023-02-16T20:26:22.512Z,5.40
2023-02-16T20:28:51.713Z,5.40
2023-02-16T20:34:09.511Z,5.30
2023-02-16T20:36:40.421Z,5.30
2023-02-16T20:39:08.467Z,5.30
2023-02-16T20:41:36.248Z,5.20
2023-02-16T20:44:05.735Z,5.40
2023-02-16T20:49:18.380Z,5.30
2023-02-16T20:51:45.669Z,5.30
2023-02-16T20:54:13.350Z,5.40
2023-02-16T20:56:40.771Z,5.50
2023-02-16T20:59:11.369Z,5.40
2023-02-16T21:01:43.586Z,5.40
2023-02-16T21:04:11.357Z,5.40
2023-02-16T21:06:38.827Z,5.40
2023-02-16T21:09:08.691Z,5.50
2023-02-16T21:11:37.584Z,5.50
2023-02-16T21:14:05.912Z,5.60
2023-02-16T21:16:35.273Z,5.70
2023-02-16T21:19:05.594Z,5.60
2023-02-16T21:21:41.256Z,5.60
2023-02-16T21:24:08.660Z,5.60
2023-02-16T21:26:36.175Z,5.50
2023-02-16T21:29:03.904Z,5.60
2023-02-16T21:31:31.899Z,5.60
2023-02-16T21:34:00.864Z,5.60
2023-02-16T21:36:28.507Z,5.60
2023-02-16T21:38:56.528Z,5.60
2023-02-16T21:41:29.386Z,5.50
2023-02-16T21:44:01.123Z,5.70
2023-02-16T21:46:31.373Z,6.00
2023-02-16T21:49:01.343Z,6.10
2023-02-16T21:51:32.105Z,5.70
2023-02-16T21:54:00.550Z,5.70
2023-02-16T21:56:34.626Z,5.60
2023-02-16T21:59:03.603Z,5.60
2023-02-16T22:01:35.380Z,5.50
2023-02-16T22:04:05.312Z,5.60
2023-02-16T22:06:36.329Z,5.60
2023-02-16T22:09:10.659Z,5.60
2023-02-16T22:11:42.630Z,5.70
2023-02-16T22:14:10.967Z,5.80
2023-02-16T22:16:41.562Z,5.70
2023-02-16T22:19:16.047Z,5.70
2023-02-16T22:21:45.246Z,5.60
2023-02-16T22:24:15.638Z,5.50
2023-02-16T22:26:43.048Z,5.50
2023-02-16T22:29:12.235Z,5.50
2023-02-16T22:31:43.371Z,5.60
2023-02-16T22:34:15.776Z,5.70
2023-02-16T22:36:43.473Z,5.60
2023-02-16T22:39:13.630Z,5.60
2023-02-16T22:41:41.707Z,5.60
2023-02-16T22:44:11.597Z,5.70
2023-02-16T22:46:38.820Z,5.80
2023-02-16T22:49:06.211Z,5.90
2023-02-16T22:51:35.170Z,6.00
2023-02-16T22:54:03.043Z,5.80
2023-02-16T22:56:31.771Z,5.80
2023-02-16T22:59:00.026Z,5.90
2023-02-16T23:01:29.633Z,5.90
2023-02-16T23:03:59.170Z,5.90
2023-02-16T23:06:28.823Z,5.90
2023-02-16T23:09:00.453Z,6.00
2023-02-16T23:11:29.406Z,5.90
2023-02-16T23:13:58.982Z,6.00
2023-02-16T23:16:28.235Z,6.10
2023-02-16T23:18:57.159Z,6.00
2023-02-16T23:21:28.306Z,6.00
2023-02-16T23:23:57.875Z,6.00
2023-02-16T23:26:28.160Z,6.10
2023-02-16T23:28:59.126Z,6.20
2023-02-16T23:31:26.926Z,6.10
2023-02-16T23:33:56.877Z,6.20
2023-02-16T23:36:24.574Z,6.20
2023-02-16T23:38:51.843Z,6.10
2023-02-16T23:41:20.891Z,6.10
2023-02-16T23:43:48.149Z,6.10
2023-02-16T23:46:15.446Z,6.10
2023-02-16T23:48:43.098Z,6.10
2023-02-16T23:51:12.073Z,6.10
2023-02-16T23:53:39.484Z,6.20
2023-02-16T23:56:09.511Z,6.30
2023-02-16T23:58:41.944Z,6.30
